Latest Weather Observations for Hillarys Point Boat Harbour

IDW60901

Issued at 5:41 pm WST Sunday 26 April 2015 (issued every 10 minutes, with the page automatically refreshed every 10 minutes)

About weather observations | Map of Perth area stations | Latest observations for Perth area | Other Formats
Station Details ID: 009265 Name: HILLARYS BOAT HARBOUR NTC AWS Lat: -31.83 Lon: 115.74 Height: 0.0 m
Data from the previous 72 hours. | See also: Recent months for locations in Western Australia
Date/Time
WST
Tmp

°C
App
Tmp
°C
Dew
Point
°C
Rel
Hum
%
Delta-T

°C
Wind Press
QNH
hPa
Press
MSL
hPa
Rain
since
9 am
mm
Dir
 
Spd
km/h
Gust
km/h
Spd
kts
Gust
kts
26/05:30pm 23.2 - - - - ENE 11 20 6 11 1022.3 1022.3 -
26/05:00pm 23.8 - - - - E 11 22 6 12 1022.1 1022.1 -
26/04:30pm 24.2 - - - - ENE 13 20 7 11 1022.0 1022.0 -
26/04:00pm 24.2 - - - - ENE 11 22 6 12 1021.9 1021.9 -
26/03:30pm 24.2 - - - - ENE 15 30 8 16 1021.9 1021.9 -
26/03:00pm 24.1 - - - - E 11 22 6 12 1021.8 1021.8 -
26/02:30pm 24.1 - - - - E 9 22 5 12 1021.9 1021.9 -
26/02:00pm 23.4 - - - - ENE 11 22 6 12 1022.0 1022.0 -
26/01:30pm 23.5 - - - - E 11 20 6 11 1022.3 1022.3 -
26/01:00pm 22.8 - - - - E 15 26 8 14 1022.8 1022.8 -
26/12:30pm 22.2 - - - - ENE 19 32 10 17 1023.1 1023.1 -
26/12:00pm 21.7 - - - - ENE 13 26 7 14 1023.7 1023.7 -
26/11:30am 21.2 - - - - ENE 17 30 9 16 1024.2 1024.2 -
26/11:00am 20.5 - - - - ENE 17 30 9 16 1024.5 1024.5 -
26/10:30am 19.9 - - - - ENE 15 28 8 15 1024.8 1024.8 -
26/10:00am 18.9 - - - - ENE 17 26 9 14 1025.0 1025.0 -
26/09:30am 17.6 - - - - ENE 20 32 11 17 1025.2 1025.2 -
26/09:00am 16.9 - - - - ENE 17 32 9 17 1025.2 1025.2 -
26/08:30am 15.4 - - - - ENE 17 26 9 14 1025.1 1025.1 -
26/08:00am 14.6 - - - - ENE 17 32 9 17 1024.9 1024.9 -
26/07:30am 13.8 - - - - ENE 13 24 7 13 1024.6 1024.6 -
26/07:00am 13.4 - - - - E 11 20 6 11 1024.4 1024.4 -
26/06:30am 13.4 - - - - ENE 11 19 6 10 1024.2 1024.2 -
26/06:00am 13.6 - - - - ENE 11 19 6 10 1024.0 1024.0 -
26/05:30am 13.7 - - - - ENE 11 20 6 11 1023.9 1023.9 -
26/05:00am 14.0 - - - - ENE 11 19 6 10 1023.8 1023.8 -
26/04:30am 14.0 - - - - ENE 9 15 5 8 1023.8 1023.8 -
26/04:00am 14.4 - - - - ENE 9 17 5 9 1023.7 1023.7 -
26/03:30am 14.7 - - - - ENE 9 17 5 9 1023.6 1023.6 -
26/03:00am 15.2 - - - - ENE 11 17 6 9 1023.7 1023.7 -
26/02:30am 15.7 - - - - ENE 11 19 6 10 1023.7 1023.7 -
26/02:00am 15.9 - - - - E 9 19 5 10 1023.8 1023.8 -
26/01:30am 15.9 - - - - E 9 20 5 11 1023.9 1023.9 -
26/01:00am 15.8 - - - - E 7 15 4 8 1023.9 1023.9 -
26/12:30am 15.9 - - - - E 6 11 3 6 1023.8 1023.8 -
26/12:00am 16.2 - - - - E 6 13 3 7 1023.8 1023.8 -
 
Date/Time
WST
Tmp

°C
App
Tmp
°C
Dew
Point
°C
Rel
Hum
%
Delta-T

°C
Wind Press
QNH
hPa
Press
MSL
hPa
Rain
since
9 am
mm
Dir
 
Spd
km/h
Gust
km/h
Spd
kts
Gust
kts
25/11:30pm 16.3 - - - - E 6 13 3 7 1024.0 1024.0 -
25/11:00pm 16.1 - - - - E 4 11 2 6 1024.2 1024.2 -
25/10:30pm 16.2 - - - - E 4 11 2 6 1024.2 1024.2 -
25/10:00pm 16.4 - - - - E 4 9 2 5 1024.2 1024.2 -
25/09:30pm 16.6 - - - - E 2 7 1 4 1024.0 1024.0 -
25/09:00pm 17.1 - - - - E 2 6 1 3 1024.0 1024.0 -
25/08:30pm 17.5 - - - - E 2 6 1 3 1023.9 1023.9 -
25/08:00pm 18.1 - - - - ESE 2 4 1 2 1023.7 1023.7 -
25/07:30pm 18.8 - - - - E 4 11 2 6 1023.5 1023.5 -
25/07:00pm 19.3 - - - - E 4 7 2 4 1023.2 1023.2 -
25/06:30pm 20.1 - - - - E 4 9 2 5 1023.1 1023.1 -
25/06:00pm 20.9 - - - - ENE 7 15 4 8 1022.8 1022.8 -
25/05:30pm 21.6 - - - - ENE 11 24 6 13 1022.5 1022.5 -
25/05:00pm 22.0 - - - - E 11 20 6 11 1022.3 1022.3 -
25/04:30pm 22.2 - - - - E 11 24 6 13 1022.0 1022.0 -
25/04:00pm 22.4 - - - - ENE 11 28 6 15 1022.1 1022.1 -
25/03:30pm 22.0 - - - - ENE 15 26 8 14 1022.1 1022.1 -
25/03:00pm 21.7 - - - - ENE 15 24 8 13 1022.1 1022.1 -
25/02:30pm 21.7 - - - - E 11 22 6 12 1022.2 1022.2 -
25/02:00pm 21.8 - - - - ENE 13 28 7 15 1022.4 1022.4 -
25/01:30pm 21.2 - - - - E 13 24 7 13 1022.7 1022.7 -
25/01:00pm 21.1 - - - - E 11 24 6 13 1023.1 1023.1 -
25/12:30pm 20.4 - - - - ENE 11 24 6 13 1023.7 1023.7 -
25/12:00pm 19.6 - - - - ENE 13 26 7 14 1024.2 1024.2 -
25/11:30am 18.9 - - - - ENE 15 32 8 17 1024.7 1024.7 -
25/11:00am 18.6 - - - - ENE 17 26 9 14 1025.1 1025.1 -
25/10:30am 17.8 - - - - ENE 19 32 10 17 1025.5 1025.5 -
25/10:00am 17.5 - - - - ENE 15 28 8 15 1025.9 1025.9 -
25/09:30am 16.3 - - - - ENE 19 35 10 19 1026.3 1026.3 -
25/09:00am 15.5 - - - - ENE 17 30 9 16 1026.4 1026.4 -
25/08:30am 14.8 - - - - ENE 15 24 8 13 1026.5 1026.5 -
25/08:00am 13.9 - - - - ENE 9 17 5 9 1026.4 1026.4 -
25/07:30am 13.6 - - - - ENE 6 13 3 7 1026.1 1026.1 -
25/07:00am 13.0 - - - - E 9 15 5 8 1025.5 1025.5 -
25/06:30am 13.0 - - - - E 7 15 4 8 1025.2 1025.2 -
25/06:00am 13.1 - - - - ENE 7 15 4 8 1025.0 1025.0 -
25/05:30am 13.5 - - - - ENE 9 15 5 8 1025.0 1025.0 -
25/05:00am 13.7 - - - - ENE 9 20 5 11 1024.8 1024.8 -
25/04:30am 14.0 - - - - E 11 26 6 14 1024.5 1024.5 -
25/04:00am 14.4 - - - - ENE 13 22 7 12 1024.2 1024.2 -
25/03:30am 14.8 - - - - ENE 13 22 7 12 1024.2 1024.2 -
25/03:00am 14.9 - - - - ENE 13 22 7 12 1024.2 1024.2 -
25/02:30am 15.3 - - - - E 11 24 6 13 1024.3 1024.3 -
25/02:00am 15.4 - - - - E 11 26 6 14 1024.3 1024.3 -
25/01:30am 15.5 - - - - ENE 13 24 7 13 1024.4 1024.4 -
25/01:00am 15.7 - - - - ENE 15 33 8 18 1024.2 1024.2 -
25/12:30am 15.9 - - - - E 19 30 10 16 1024.4 1024.4 -
25/12:00am 16.1 - - - - ENE 17 28 9 15 1024.5 1024.5 -
 
Date/Time
WST
Tmp

°C
App
Tmp
°C
Dew
Point
°C
Rel
Hum
%
Delta-T

°C
Wind Press
QNH
hPa
Press
MSL
hPa
Rain
since
9 am
mm
Dir
 
Spd
km/h
Gust
km/h
Spd
kts
Gust
kts
24/11:30pm 16.2 - - - - ENE 11 26 6 14 1024.7 1024.7 -
24/11:00pm 16.4 - - - - E 9 26 5 14 1024.9 1024.9 -
24/10:30pm 16.6 - - - - E 13 22 7 12 1025.1 1025.1 -
24/10:00pm 16.7 - - - - E 11 26 6 14 1025.3 1025.3 -
24/09:30pm 16.8 - - - - E 9 20 5 11 1025.4 1025.4 -
24/09:00pm 16.9 - - - - E 7 15 4 8 1025.4 1025.4 -
24/08:30pm 17.2 - - - - E 9 20 5 11 1025.4 1025.4 -
24/08:00pm 17.7 - - - - E 7 22 4 12 1025.2 1025.2 -
24/07:30pm 17.8 - - - - ESE 2 9 1 5 1025.0 1025.0 -
24/07:00pm 18.2 - - - - SE 2 6 1 3 1024.9 1024.9 -
24/06:30pm 18.5 - - - - E 4 7 2 4 1024.7 1024.7 -
24/06:00pm 19.0 - - - - E 7 13 4 7 1024.8 1024.8 -
24/05:30pm 19.4 - - - - ENE 11 20 6 11 1024.7 1024.7 -
24/05:00pm 19.8 - - - - ENE 11 19 6 10 1024.5 1024.5 -
24/04:30pm 20.1 - - - - E 13 28 7 15 1024.1 1024.1 -
24/04:00pm 20.1 - - - - E 11 24 6 13 1024.1 1024.1 -
24/03:30pm 20.4 - - - - E 11 20 6 11 1024.3 1024.3 -
24/03:00pm 20.6 - - - - E 11 20 6 11 1024.4 1024.4 -
24/02:30pm 20.6 - - - - ENE 11 24 6 13 1024.5 1024.5 -
24/02:00pm 20.7 - - - - E 9 22 5 12 1024.3 1024.3 -
24/01:30pm 19.6 - - - - E 11 26 6 14 1024.9 1024.9 -
24/01:00pm 19.6 - - - - ENE 15 28 8 15 1025.4 1025.4 -
24/12:30pm 18.8 - - - - E 9 20 5 11 1026.0 1026.0 -
24/12:00pm 18.5 - - - - ENE 19 30 10 16 1026.3 1026.3 -
24/11:30am 17.7 - - - - E 13 32 7 17 1026.5 1026.5 -
24/11:00am 17.5 - - - - ENE 20 37 11 20 1026.7 1026.7 -
24/10:30am 16.5 - - - - E 20 35 11 19 1027.0 1027.0 -
24/10:00am 15.9 - - - - ENE 15 26 8 14 1027.8 1027.8 -
24/09:30am 15.0 - - - - ENE 20 35 11 19 1027.9 1027.9 -
24/09:00am 14.4 - - - - E 15 26 8 14 1028.3 1028.3 -
24/08:30am 13.6 - - - - E 9 19 5 10 1028.6 1028.6 -
24/08:00am 12.8 - - - - E 7 17 4 9 1028.7 1028.7 -
24/07:30am 12.6 - - - - E 9 19 5 10 1028.3 1028.3 -
24/07:00am 12.3 - - - - E 7 19 4 10 1027.9 1027.9 -
24/06:30am 12.4 - - - - ESE 6 11 3 6 1027.5 1027.5 -
24/06:00am 12.5 - - - - E 7 15 4 8 1026.9 1026.9 -
24/05:30am 12.7 - - - - E 6 13 3 7 1026.5 1026.5 -
24/05:00am 12.8 - - - - E 7 17 4 9 1026.4 1026.4 -
24/04:30am 13.1 - - - - E 7 22 4 12 1026.2 1026.2 -
24/04:00am 13.4 - - - - ESE 7 20 4 11 1026.0 1026.0 -
24/03:30am 13.6 - - - - E 9 24 5 13 1026.0 1026.0 -
24/03:00am 14.1 - - - - E 11 24 6 13 1025.7 1025.7 -
24/02:30am 14.3 - - - - E 13 26 7 14 1025.7 1025.7 -
24/02:00am 14.7 - - - - E 13 24 7 13 1025.8 1025.8 -
24/01:30am 15.1 - - - - E 11 24 6 13 1026.1 1026.1 -
24/01:00am 15.6 - - - - E 11 26 6 14 1026.0 1026.0 -
24/12:30am 16.0 - - - - E 9 20 5 11 1025.9 1025.9 -
24/12:00am 16.5 - - - - E 11 24 6 13 1025.8 1025.8 -
 
Date/Time
WST
Tmp

°C
App
Tmp
°C
Dew
Point
°C
Rel
Hum
%
Delta-T

°C
Wind Press
QNH
hPa
Press
MSL
hPa
Rain
since
9 am
mm
Dir
 
Spd
km/h
Gust
km/h
Spd
kts
Gust
kts
23/11:30pm 17.1 - - - - E 13 26 7 14 1025.4 1025.4 -
23/11:00pm 18.0 - - - - E 9 20 5 11 1025.0 1025.0 -
23/10:30pm 18.6 - - - - E 9 22 5 12 1024.8 1024.8 -
23/10:00pm 19.0 - - - - E 6 17 3 9 1024.6 1024.6 -
23/09:30pm 19.4 - - - - ESE 6 15 3 8 1024.5 1024.5 -
23/09:00pm 19.8 - - - - E 6 17 3 9 1024.2 1024.2 -
23/08:30pm 20.3 - - - - SE 4 13 2 7 1024.0 1024.0 -
23/08:00pm 20.5 - - - - E 2 11 1 6 1023.7 1023.7 -
23/07:30pm 21.1 - - - - ESE 2 9 1 5 1023.5 1023.5 -
23/07:00pm 21.5 - - - - E 4 13 2 7 1023.3 1023.3 -
23/06:30pm 22.1 - - - - ESE 4 15 2 8 1022.9 1022.9 -
23/06:00pm 22.6 - - - - ESE 6 22 3 12 1022.5 1022.5 -

Latest Capital City Observations: Canberra | Sydney | Melbourne | Brisbane | Adelaide | Perth | Hobart | Darwin

Other Formats:

Comma delimited format used in spreadsheet applications
http://www.bom.gov.au/fwo/IDW60901/IDW60901.95605.axf

JavaScript Object Notation format (JSON) in row-major order
http://www.bom.gov.au/fwo/IDW60901/IDW60901.95605.json